sensor_id;sensor_type;location;lat;lon;timestamp;pressure;altitude;pressure_sealevel;temperature;humidity
22605;BME280;11469;49.024;8.246;2022-10-23T00:03:44;100402.97;;;10.47;100.00
22605;BME280;11469;49.024;8.246;2022-10-23T00:06:10;100404.06;;;10.43;100.00
22605;BME280;11469;49.024;8.246;2022-10-23T00:08:36;100398.47;;;10.43;100.00
22605;BME280;11469;49.024;8.246;2022-10-23T00:11:09;100401.63;;;10.41;100.00
22605;BME280;11469;49.024;8.246;2022-10-23T00:13:36;100403.25;;;10.42;100.00
22605;BME280;11469;49.024;8.246;2022-10-23T00:16:01;100401.72;;;10.45;100.00
22605;BME280;11469;49.024;8.246;2022-10-23T00:18:27;100397.72;;;10.46;100.00
22605;BME280;11469;49.024;8.246;2022-10-23T00:20:52;100398.66;;;10.50;100.00
22605;BME280;11469;49.024;8.246;2022-10-23T00:23:17;100392.94;;;10.46;100.00
22605;BME280;11469;49.024;8.246;2022-10-23T00:25:43;100386.53;;;10.46;100.00
22605;BME280;11469;49.024;8.246;2022-10-23T00:28:09;100384.91;;;10.45;100.00
22605;BME280;11469;49.024;8.246;2022-10-23T00:30:34;100374.41;;;10.42;100.00
22605;BME280;11469;49.024;8.246;2022-10-23T00:33:00;100370.78;;;10.41;100.00
22605;BME280;11469;49.024;8.246;2022-10-23T00:35:25;100376.41;;;10.41;100.00
22605;BME280;11469;49.024;8.246;2022-10-23T00:37:51;100379.06;;;10.34;100.00
22605;BME280;11469;49.024;8.246;2022-10-23T00:40:16;100382.84;;;10.26;100.00
22605;BME280;11469;49.024;8.246;2022-10-23T00:42:41;100386.81;;;10.25;100.00
22605;BME280;11469;49.024;8.246;2022-10-23T00:47:35;100380.75;;;10.23;100.00
22605;BME280;11469;49.024;8.246;2022-10-23T00:50:01;100385.19;;;10.24;100.00
22605;BME280;11469;49.024;8.246;2022-10-23T00:52:26;100383.47;;;10.19;100.00
22605;BME280;11469;49.024;8.246;2022-10-23T00:54:52;100390.91;;;10.15;100.00
22605;BME280;11469;49.024;8.246;2022-10-23T00:57:17;100378.44;;;10.13;100.00
22605;BME280;11469;49.024;8.246;2022-10-23T00:59:43;100376.47;;;10.13;100.00
22605;BME280;11469;49.024;8.246;2022-10-23T01:02:08;100375.28;;;10.14;100.00
22605;BME280;11469;49.024;8.246;2022-10-23T01:04:34;100365.25;;;10.13;100.00
22605;BME280;11469;49.024;8.246;2022-10-23T01:07:23;100365.25;;;10.13;100.00
22605;BME280;11469;49.024;8.246;2022-10-23T01:15:03;100362.47;;;10.13;100.00
22605;BME280;11469;49.024;8.246;2022-10-23T01:17:40;100351.97;;;10.10;100.00
22605;BME280;11469;49.024;8.246;2022-10-23T01:26:06;100362.16;;;10.03;100.00
22605;BME280;11469;49.024;8.246;2022-10-23T01:31:10;100360.44;;;9.98;100.00
22605;BME280;11469;49.024;8.246;2022-10-23T01:33:42;100366.84;;;9.98;100.00
22605;BME280;11469;49.024;8.246;2022-10-23T01:36:11;100361.16;;;9.95;100.00
22605;BME280;11469;49.024;8.246;2022-10-23T01:38:55;100357.19;;;9.96;100.00
22605;BME280;11469;49.024;8.246;2022-10-23T01:41:29;100361.50;;;9.93;100.00
22605;BME280;11469;49.024;8.246;2022-10-23T01:44:13;100343.53;;;9.94;100.00
22605;BME280;11469;49.024;8.246;2022-10-23T01:46:42;100350.31;;;9.93;100.00
22605;BME280;11469;49.024;8.246;2022-10-23T01:49:12;100353.22;;;9.97;100.00
22605;BME280;11469;49.024;8.246;2022-10-23T01:51:41;100346.44;;;9.98;100.00
22605;BME280;11469;49.024;8.246;2022-10-23T01:54:10;100348.06;;;9.99;100.00
22605;BME280;11469;49.024;8.246;2022-10-23T01:56:40;100329.63;;;9.98;100.00
22605;BME280;11469;49.024;8.246;2022-10-23T01:59:13;100328.38;;;9.95;100.00
22605;BME280;11469;49.024;8.246;2022-10-23T02:01:42;100336.59;;;9.88;100.00
22605;BME280;11469;49.024;8.246;2022-10-23T02:04:12;100324.13;;;9.86;100.00
22605;BME280;11469;49.024;8.246;2022-10-23T02:06:39;100328.56;;;9.87;100.00
22605;BME280;11469;49.024;8.246;2022-10-23T02:09:05;100326.94;;;9.86;100.00
22605;BME280;11469;49.024;8.246;2022-10-23T02:11:37;100333.81;;;9.88;100.00
22605;BME280;11469;49.024;8.246;2022-10-23T02:14:32;100336.69;;;9.92;100.00
22605;BME280;11469;49.024;8.246;2022-10-23T02:17:08;100322.72;;;9.92;100.00
22605;BME280;11469;49.024;8.246;2022-10-23T02:19:41;100324.31;;;9.93;100.00
22605;BME280;11469;49.024;8.246;2022-10-23T02:22:30;100316.66;;;9.90;100.00
22605;BME280;11469;49.024;8.246;2022-10-23T02:25:13;100310.25;;;9.89;100.00
22605;BME280;11469;49.024;8.246;2022-10-23T02:27:46;100312.22;;;9.89;100.00
22605;BME280;11469;49.024;8.246;2022-10-23T02:30:15;100315.03;;;9.89;100.00
22605;BME280;11469;49.024;8.246;2022-10-23T02:32:46;100315.47;;;9.91;100.00
22605;BME280;11469;49.024;8.246;2022-10-23T02:35:13;100315.38;;;9.87;100.00
22605;BME280;11469;49.024;8.246;2022-10-23T02:37:39;100318.53;;;9.86;100.00
22605;BME280;11469;49.024;8.246;2022-10-23T02:40:05;100322.97;;;9.87;100.00
22605;BME280;11469;49.024;8.246;2022-10-23T02:42:35;100326.47;;;9.84;100.00
22605;BME280;11469;49.024;8.246;2022-10-23T02:45:22;100321.59;;;9.81;100.00
22605;BME280;11469;49.024;8.246;2022-10-23T02:48:05;100313.91;;;9.78;100.00
22605;BME280;11469;49.024;8.246;2022-10-23T02:51:32;100309.84;;;9.75;100.00
22605;BME280;11469;49.024;8.246;2022-10-23T02:56:27;100295.94;;;9.79;100.00
22605;BME280;11469;49.024;8.246;2022-10-23T02:59:15;100286.47;;;9.83;100.00
22605;BME280;11469;49.024;8.246;2022-10-23T03:01:46;100292.53;;;9.85;100.00
22605;BME280;11469;49.024;8.246;2022-10-23T03:04:15;100297.78;;;9.87;100.00
22605;BME280;11469;49.024;8.246;2022-10-23T03:06:41;100288.22;;;9.88;100.00
22605;BME280;11469;49.024;8.246;2022-10-23T03:09:08;100275.75;;;9.85;100.00
22605;BME280;11469;49.024;8.246;2022-10-23T03:11:34;100282.88;;;9.83;100.00
22605;BME280;11469;49.024;8.246;2022-10-23T03:14:00;100277.63;;;9.81;100.00
22605;BME280;11469;49.024;8.246;2022-10-23T03:16:26;100288.63;;;9.74;100.00
22605;BME280;11469;49.024;8.246;2022-10-23T03:18:51;100279.97;;;9.79;100.00
22605;BME280;11469;49.024;8.246;2022-10-23T03:21:17;100279.25;;;9.82;100.00
22605;BME280;11469;49.024;8.246;2022-10-23T03:23:42;100286.03;;;9.81;100.00
22605;BME280;11469;49.024;8.246;2022-10-23T03:26:07;100280.44;;;9.81;100.00
22605;BME280;11469;49.024;8.246;2022-10-23T03:28:33;100272.50;;;9.83;100.00
22605;BME280;11469;49.024;8.246;2022-10-23T03:31:00;100280.53;;;9.85;100.00
22605;BME280;11469;49.024;8.246;2022-10-23T03:33:27;100275.38;;;9.87;100.00
22605;BME280;11469;49.024;8.246;2022-10-23T03:35:52;100279.00;;;9.87;100.00
22605;BME280;11469;49.024;8.246;2022-10-23T03:38:18;100273.84;;;9.89;100.00
22605;BME280;11469;49.024;8.246;2022-10-23T03:40:43;100268.59;;;9.88;100.00
22605;BME280;11469;49.024;8.246;2022-10-23T03:43:08;100273.19;;;9.96;100.00
22605;BME280;11469;49.024;8.246;2022-10-23T03:45:34;100273.81;;;10.05;100.00
22605;BME280;11469;49.024;8.246;2022-10-23T03:48:03;100260.81;;;9.97;100.00
22605;BME280;11469;49.024;8.246;2022-10-23T03:50:28;100259.91;;;9.93;100.00
22605;BME280;11469;49.024;8.246;2022-10-23T03:52:53;100264.06;;;9.99;100.00
22605;BME280;11469;49.024;8.246;2022-10-23T03:55:19;100254.88;;;9.98;100.00
22605;BME280;11469;49.024;8.246;2022-10-23T03:57:44;100252.44;;;10.13;100.00
22605;BME280;11469;49.024;8.246;2022-10-23T04:00:10;100261.09;;;10.08;100.00
22605;BME280;11469;49.024;8.246;2022-10-23T04:02:35;100261.47;;;10.06;100.00
22605;BME280;11469;49.024;8.246;2022-10-23T04:05:01;100266.16;;;10.02;100.00
22605;BME280;11469;49.024;8.246;2022-10-23T04:07:26;100264.88;;;9.99;100.00
22605;BME280;11469;49.024;8.246;2022-10-23T04:09:52;100263.63;;;9.97;100.00
22605;BME280;11469;49.024;8.246;2022-10-23T04:12:18;100261.53;;;9.94;100.00
22605;BME280;11469;49.024;8.246;2022-10-23T04:14:43;100258.75;;;9.94;100.00
22605;BME280;11469;49.024;8.246;2022-10-23T04:17:09;100262.44;;;9.98;100.00
22605;BME280;11469;49.024;8.246;2022-10-23T04:19:34;100262.09;;;9.99;100.00
22605;BME280;11469;49.024;8.246;2022-10-23T04:22:00;100260.38;;;9.95;100.00
22605;BME280;11469;49.024;8.246;2022-10-23T04:24:25;100262.91;;;10.00;100.00
22605;BME280;11469;49.024;8.246;2022-10-23T04:26:51;100266.88;;;9.99;100.00
22605;BME280;11469;49.024;8.246;2022-10-23T04:29:17;100263.34;;;10.02;100.00
22605;BME280;11469;49.024;8.246;2022-10-23T04:31:43;100263.09;;;10.07;100.00
22605;BME280;11469;49.024;8.246;2022-10-23T04:34:08;100262.81;;;10.12;100.00
22605;BME280;11469;49.024;8.246;2022-10-23T04:36:34;100276.00;;;10.12;100.00
22605;BME280;11469;49.024;8.246;2022-10-23T04:38:59;100272.75;;;10.10;100.00
22605;BME280;11469;49.024;8.246;2022-10-23T04:41:25;100271.56;;;10.11;100.00
22605;BME280;11469;49.024;8.246;2022-10-23T04:43:50;100282.41;;;10.12;100.00
22605;BME280;11469;49.024;8.246;2022-10-23T04:46:16;100276.81;;;10.12;100.00
22605;BME280;11469;49.024;8.246;2022-10-23T04:48:41;100269.22;;;10.13;100.00
22605;BME280;11469;49.024;8.246;2022-10-23T04:51:06;100256.47;;;10.47;100.00
22605;BME280;11469;49.024;8.246;2022-10-23T04:53:32;100256.47;;;10.47;100.00
22605;BME280;11469;49.024;8.246;2022-10-23T04:55:58;100251.00;;;10.35;100.00
22605;BME280;11469;49.024;8.246;2022-10-23T04:58:26;100256.88;;;10.29;100.00
22605;BME280;11469;49.024;8.246;2022-10-23T05:00:52;100247.56;;;10.25;100.00
22605;BME280;11469;49.024;8.246;2022-10-23T05:03:20;100239.09;;;10.22;100.00
22605;BME280;11469;49.024;8.246;2022-10-23T05:05:46;100227.44;;;10.20;100.00
22605;BME280;11469;49.024;8.246;2022-10-23T05:08:12;100228.94;;;10.17;100.00
22605;BME280;11469;49.024;8.246;2022-10-23T05:10:37;100244.84;;;10.13;100.00
22605;BME280;11469;49.024;8.246;2022-10-23T05:13:03;100254.22;;;10.05;100.00
22605;BME280;11469;49.024;8.246;2022-10-23T05:15:29;100257.03;;;10.05;100.00
22605;BME280;11469;49.024;8.246;2022-10-23T05:17:59;100263.81;;;10.04;100.00
22605;BME280;11469;49.024;8.246;2022-10-23T05:20:30;100258.56;;;10.03;100.00
22605;BME280;11469;49.024;8.246;2022-10-23T05:22:59;100247.72;;;10.01;100.00
22605;BME280;11469;49.024;8.246;2022-10-23T05:25:25;100243.38;;;10.04;100.00
22605;BME280;11469;49.024;8.246;2022-10-23T05:27:51;100243.84;;;10.06;100.00
22605;BME280;11469;49.024;8.246;2022-10-23T05:30:17;100230.66;;;10.06;100.00
22605;BME280;11469;49.024;8.246;2022-10-23T05:32:42;100220.19;;;10.03;100.00
22605;BME280;11469;49.024;8.246;2022-10-23T05:35:11;100216.38;;;10.11;100.00
22605;BME280;11469;49.024;8.246;2022-10-23T05:37:40;100213.97;;;10.25;100.00
22605;BME280;11469;49.024;8.246;2022-10-23T05:40:08;100226.34;;;10.24;100.00
22605;BME280;11469;49.024;8.246;2022-10-23T05:42:34;100214.56;;;10.19;100.00
22605;BME280;11469;49.024;8.246;2022-10-23T05:44:59;100214.41;;;10.12;100.00
22605;BME280;11469;49.024;8.246;2022-10-23T05:47:24;100218.56;;;10.02;100.00
22605;BME280;11469;49.024;8.246;2022-10-23T05:49:50;100225.25;;;9.97;100.00
22605;BME280;11469;49.024;8.246;2022-10-23T05:52:15;100219.13;;;9.92;100.00
22605;BME280;11469;49.024;8.246;2022-10-23T05:54:41;100216.16;;;9.85;100.00
22605;BME280;11469;49.024;8.246;2022-10-23T05:57:06;100221.38;;;9.86;100.00
22605;BME280;11469;49.024;8.246;2022-10-23T05:59:32;100202.97;;;9.85;100.00
22605;BME280;11469;49.024;8.246;2022-10-23T06:01:57;100200.06;;;9.82;100.00
22605;BME280;11469;49.024;8.246;2022-10-23T06:04:22;100205.66;;;9.82;100.00
22605;BME280;11469;49.024;8.246;2022-10-23T06:06:48;100195.91;;;9.91;100.00
22605;BME280;11469;49.024;8.246;2022-10-23T06:09:14;100206.94;;;9.84;100.00
22605;BME280;11469;49.024;8.246;2022-10-23T06:11:40;100211.28;;;9.82;100.00
22605;BME280;11469;49.024;8.246;2022-10-23T06:14:06;100204.94;;;9.85;100.00
22605;BME280;11469;49.024;8.246;2022-10-23T06:16:31;100185.13;;;9.93;100.00
22605;BME280;11469;49.024;8.246;2022-10-23T06:18:57;100190.31;;;9.91;100.00
22605;BME280;11469;49.024;8.246;2022-10-23T06:21:22;100192.13;;;9.84;100.00
22605;BME280;11469;49.024;8.246;2022-10-23T06:23:48;100183.63;;;9.80;100.00
22605;BME280;11469;49.024;8.246;2022-10-23T06:26:15;100174.94;;;10.01;100.00
22605;BME280;11469;49.024;8.246;2022-10-23T06:28:40;100202.25;;;9.88;100.00
22605;BME280;11469;49.024;8.246;2022-10-23T06:31:12;100178.94;;;9.84;100.00
22605;BME280;11469;49.024;8.246;2022-10-23T06:33:39;100181.88;;;10.07;100.00
22605;BME280;11469;49.024;8.246;2022-10-23T06:36:05;100206.81;;;9.96;100.00
22605;BME280;11469;49.024;8.246;2022-10-23T06:38:32;100204.75;;;9.93;100.00
22605;BME280;11469;49.024;8.246;2022-10-23T06:41:01;100193.47;;;9.90;100.00
22605;BME280;11469;49.024;8.246;2022-10-23T06:43:27;100199.53;;;9.92;100.00
22605;BME280;11469;49.024;8.246;2022-10-23T06:45:52;100201.88;;;9.90;100.00
22605;BME280;11469;49.024;8.246;2022-10-23T06:48:18;100201.94;;;9.93;100.00
22605;BME280;11469;49.024;8.246;2022-10-23T06:50:43;100188.38;;;9.95;100.00
22605;BME280;11469;49.024;8.246;2022-10-23T06:53:09;100184.41;;;9.96;100.00
22605;BME280;11469;49.024;8.246;2022-10-23T06:55:34;100180.97;;;10.03;100.00
22605;BME280;11469;49.024;8.246;2022-10-23T06:57:59;100186.22;;;10.05;100.00
22605;BME280;11469;49.024;8.246;2022-10-23T07:00:25;100192.53;;;10.02;100.00
22605;BME280;11469;49.024;8.246;2022-10-23T07:02:51;100189.03;;;10.05;100.00
22605;BME280;11469;49.024;8.246;2022-10-23T07:05:17;100200.31;;;10.08;100.00
22605;BME280;11469;49.024;8.246;2022-10-23T07:07:43;100195.59;;;10.12;100.00
22605;BME280;11469;49.024;8.246;2022-10-23T07:10:09;100204.91;;;10.16;100.00
22605;BME280;11469;49.024;8.246;2022-10-23T07:12:34;100219.56;;;10.25;100.00
22605;BME280;11469;49.024;8.246;2022-10-23T07:15:00;100231.31;;;10.31;100.00
22605;BME280;11469;49.024;8.246;2022-10-23T07:17:27;100219.00;;;10.36;100.00
22605;BME280;11469;49.024;8.246;2022-10-23T07:19:52;100225.94;;;10.42;100.00
22605;BME280;11469;49.024;8.246;2022-10-23T07:22:18;100236.13;;;10.50;100.00
22605;BME280;11469;49.024;8.246;2022-10-23T07:24:43;100228.69;;;10.57;100.00
22605;BME280;11469;49.024;8.246;2022-10-23T07:27:08;100229.66;;;10.65;100.00
22605;BME280;11469;49.024;8.246;2022-10-23T07:29:34;100214.63;;;10.73;100.00
22605;BME280;11469;49.024;8.246;2022-10-23T07:31:59;100232.19;;;10.89;100.00
22605;BME280;11469;49.024;8.246;2022-10-23T07:34:26;100225.84;;;10.92;100.00
22605;BME280;11469;49.024;8.246;2022-10-23T07:36:52;100229.16;;;10.98;100.00
22605;BME280;11469;49.024;8.246;2022-10-23T07:39:19;100229.09;;;11.14;100.00
22605;BME280;11469;49.024;8.246;2022-10-23T07:41:46;100228.88;;;11.22;100.00
22605;BME280;11469;49.024;8.246;2022-10-23T07:44:12;100216.56;;;11.27;100.00
22605;BME280;11469;49.024;8.246;2022-10-23T07:46:37;100216.28;;;11.36;100.00
22605;BME280;11469;49.024;8.246;2022-10-23T07:49:03;100220.50;;;11.45;100.00
22605;BME280;11469;49.024;8.246;2022-10-23T07:51:28;100215.16;;;11.59;100.00
22605;BME280;11469;49.024;8.246;2022-10-23T07:53:53;100211.22;;;11.64;100.00
22605;BME280;11469;49.024;8.246;2022-10-23T07:56:24;100214.22;;;11.75;100.00
22605;BME280;11469;49.024;8.246;2022-10-23T07:58:51;100209.91;;;11.77;100.00
22605;BME280;11469;49.024;8.246;2022-10-23T08:01:28;100211.16;;;11.80;100.00
22605;BME280;11469;49.024;8.246;2022-10-23T08:03:55;100209.69;;;11.89;100.00
22605;BME280;11469;49.024;8.246;2022-10-23T08:06:20;100213.41;;;11.97;100.00
22605;BME280;11469;49.024;8.246;2022-10-23T08:08:46;100209.59;;;12.09;100.00
22605;BME280;11469;49.024;8.246;2022-10-23T08:11:13;100212.28;;;12.24;100.00
22605;BME280;11469;49.024;8.246;2022-10-23T08:13:39;100213.97;;;12.33;100.00
22605;BME280;11469;49.024;8.246;2022-10-23T08:16:05;100207.72;;;12.43;100.00
22605;BME280;11469;49.024;8.246;2022-10-23T08:18:30;100216.25;;;12.50;100.00
22605;BME280;11469;49.024;8.246;2022-10-23T08:21:00;100223.66;;;12.61;100.00
22605;BME280;11469;49.024;8.246;2022-10-23T08:23:26;100221.81;;;12.73;100.00
22605;BME280;11469;49.024;8.246;2022-10-23T08:26:02;100216.78;;;12.89;100.00
22605;BME280;11469;49.024;8.246;2022-10-23T08:28:30;100216.56;;;13.01;100.00
22605;BME280;11469;49.024;8.246;2022-10-23T08:30:55;100213.91;;;13.15;100.00
22605;BME280;11469;49.024;8.246;2022-10-23T08:33:22;100215.72;;;13.31;100.00
22605;BME280;11469;49.024;8.246;2022-10-23T08:35:49;100223.56;;;13.48;100.00
22605;BME280;11469;49.024;8.246;2022-10-23T08:38:15;100207.97;;;13.57;100.00
22605;BME280;11469;49.024;8.246;2022-10-23T08:40:45;100204.44;;;13.64;100.00
22605;BME280;11469;49.024;8.246;2022-10-23T08:43:26;100198.84;;;13.71;100.00
22605;BME280;11469;49.024;8.246;2022-10-23T08:45:58;100209.44;;;13.85;100.00
22605;BME280;11469;49.024;8.246;2022-10-23T08:48:29;100197.47;;;13.95;100.00
22605;BME280;11469;49.024;8.246;2022-10-23T08:51:03;100212.44;;;14.06;100.00
22605;BME280;11469;49.024;8.246;2022-10-23T08:53:35;100194.00;;;14.19;100.00
22605;BME280;11469;49.024;8.246;2022-10-23T08:56:30;100183.63;;;14.31;100.00
22605;BME280;11469;49.024;8.246;2022-10-23T09:04:29;100175.81;;;14.65;100.00
22605;BME280;11469;49.024;8.246;2022-10-23T09:07:22;100174.69;;;14.80;100.00
22605;BME280;11469;49.024;8.246;2022-10-23T09:12:29;100160.66;;;14.98;100.00
22605;BME280;11469;49.024;8.246;2022-10-23T09:17:32;100160.28;;;15.13;100.00
22605;BME280;11469;49.024;8.246;2022-10-23T09:20:23;100159.53;;;15.27;100.00
22605;BME280;11469;49.024;8.246;2022-10-23T09:22:58;100153.88;;;15.27;100.00
22605;BME280;11469;49.024;8.246;2022-10-23T09:25:27;100159.94;;;15.29;100.00
22605;BME280;11469;49.024;8.246;2022-10-23T09:27:56;100157.94;;;15.37;100.00
22605;BME280;11469;49.024;8.246;2022-10-23T09:30:38;100156.31;;;15.39;100.00
22605;BME280;11469;49.024;8.246;2022-10-23T09:33:16;100160.38;;;15.45;100.00
22605;BME280;11469;49.024;8.246;2022-10-23T09:36:02;100153.56;;;15.71;98.39
22605;BME280;11469;49.024;8.246;2022-10-23T09:38:29;100148.31;;;15.70;98.78
22605;BME280;11469;49.024;8.246;2022-10-23T09:40:58;100153.19;;;15.90;96.76
22605;BME280;11469;49.024;8.246;2022-10-23T09:43:24;100149.94;;;15.96;96.88
22605;BME280;11469;49.024;8.246;2022-10-23T09:46:02;100140.25;;;15.97;96.28
22605;BME280;11469;49.024;8.246;2022-10-23T09:48:29;100135.81;;;16.06;97.96
22605;BME280;11469;49.024;8.246;2022-10-23T09:56:29;100141.78;;;16.51;94.59
22605;BME280;11469;49.024;8.246;2022-10-23T09:58:58;100144.56;;;16.58;93.11
22605;BME280;11469;49.024;8.246;2022-10-23T10:01:30;100145.78;;;16.60;92.34
22605;BME280;11469;49.024;8.246;2022-10-23T10:03:56;100136.09;;;16.65;93.57
22605;BME280;11469;49.024;8.246;2022-10-23T10:06:28;100143.34;;;16.66;92.19
22605;BME280;11469;49.024;8.246;2022-10-23T10:08:57;100131.22;;;16.73;92.67
22605;BME280;11469;49.024;8.246;2022-10-23T10:19:31;100114.78;;;17.23;88.98
22605;BME280;11469;49.024;8.246;2022-10-23T10:24:54;100100.56;;;17.34;88.98
22605;BME280;11469;49.024;8.246;2022-10-23T10:30:10;100096.34;;;17.52;86.55
22605;BME280;11469;49.024;8.246;2022-10-23T10:33:00;100096.44;;;17.45;85.36
22605;BME280;11469;49.024;8.246;2022-10-23T10:38:15;100104.06;;;17.52;84.49
22605;BME280;11469;49.024;8.246;2022-10-23T10:41:08;100111.34;;;17.53;84.69
22605;BME280;11469;49.024;8.246;2022-10-23T10:46:45;100125.84;;;17.66;85.26
22605;BME280;11469;49.024;8.246;2022-10-23T10:57:19;100088.66;;;18.01;83.02
22605;BME280;11469;49.024;8.246;2022-10-23T10:59:50;100083.31;;;18.10;83.70
22605;BME280;11469;49.024;8.246;2022-10-23T11:02:27;100080.84;;;18.16;82.33
22605;BME280;11469;49.024;8.246;2022-10-23T11:04:56;100070.19;;;18.27;81.24
22605;BME280;11469;49.024;8.246;2022-10-23T11:07:31;100059.91;;;18.40;81.18
22605;BME280;11469;49.024;8.246;2022-10-23T11:09:59;100057.50;;;18.39;78.37
22605;BME280;11469;49.024;8.246;2022-10-23T11:12:27;100049.19;;;18.21;79.53
22605;BME280;11469;49.024;8.246;2022-10-23T11:14:54;100061.38;;;18.18;80.77
22605;BME280;11469;49.024;8.246;2022-10-23T11:17:24;100053.69;;;18.15;80.97
22605;BME280;11469;49.024;8.246;2022-10-23T11:20:04;100049.25;;;18.14;80.96
22605;BME280;11469;49.024;8.246;2022-10-23T11:22:40;100040.72;;;18.17;81.43
22605;BME280;11469;49.024;8.246;2022-10-23T11:36:18;100024.66;;;18.72;76.84
22605;BME280;11469;49.024;8.246;2022-10-23T11:38:46;100023.44;;;18.73;77.80
22605;BME280;11469;49.024;8.246;2022-10-23T11:41:22;100031.16;;;18.72;78.07
22605;BME280;11469;49.024;8.246;2022-10-23T11:43:56;100030.34;;;18.72;77.99
22605;BME280;11469;49.024;8.246;2022-10-23T11:48:52;100023.97;;;18.64;78.49
22605;BME280;11469;49.024;8.246;2022-10-23T11:54:20;100021.16;;;18.61;78.08
22605;BME280;11469;49.024;8.246;2022-10-23T12:02:32;100004.88;;;18.65;78.66
22605;BME280;11469;49.024;8.246;2022-10-23T12:07:57;99990.22;;;18.97;77.54
22605;BME280;11469;49.024;8.246;2022-10-23T12:10:35;99996.84;;;18.90;79.90
22605;BME280;11469;49.024;8.246;2022-10-23T12:16:02;99987.66;;;19.06;77.27
22605;BME280;11469;49.024;8.246;2022-10-23T12:18:29;99990.00;;;19.11;76.82
22605;BME280;11469;49.024;8.246;2022-10-23T12:21:02;99994.78;;;19.17;76.95
22605;BME280;11469;49.024;8.246;2022-10-23T12:26:29;99985.28;;;19.28;77.06
22605;BME280;11469;49.024;8.246;2022-10-23T12:31:55;99973.50;;;19.29;77.10
22605;BME280;11469;49.024;8.246;2022-10-23T12:39:31;99958.00;;;19.34;78.92
22605;BME280;11469;49.024;8.246;2022-10-23T12:41:58;99941.31;;;19.36;79.13
22605;BME280;11469;49.024;8.246;2022-10-23T12:44:24;99932.38;;;19.37;77.82
22605;BME280;11469;49.024;8.246;2022-10-23T12:46:55;99929.06;;;19.39;78.14
22605;BME280;11469;49.024;8.246;2022-10-23T12:49:24;99931.09;;;19.38;78.33
22605;BME280;11469;49.024;8.246;2022-10-23T12:52:16;99924.63;;;19.38;77.84
22605;BME280;11469;49.024;8.246;2022-10-23T12:54:43;99921.72;;;19.41;76.64
22605;BME280;11469;49.024;8.246;2022-10-23T12:57:21;99921.72;;;19.41;76.82
22605;BME280;11469;49.024;8.246;2022-10-23T12:59:47;99909.84;;;19.46;75.92
22605;BME280;11469;49.024;8.246;2022-10-23T13:02:28;99913.19;;;19.41;75.68
22605;BME280;11469;49.024;8.246;2022-10-23T13:04:57;99907.28;;;19.32;76.39
22605;BME280;11469;49.024;8.246;2022-10-23T13:07:29;99903.66;;;19.32;77.13
22605;BME280;11469;49.024;8.246;2022-10-23T13:09:56;99906.41;;;19.35;77.37
22605;BME280;11469;49.024;8.246;2022-10-23T13:12:31;99905.91;;;19.40;75.94
22605;BME280;11469;49.024;8.246;2022-10-23T13:17:36;99888.63;;;19.54;74.91
22605;BME280;11469;49.024;8.246;2022-10-23T13:22:33;99896.31;;;19.77;71.74
22605;BME280;11469;49.024;8.246;2022-10-23T13:24:59;99886.25;;;19.73;72.73
22605;BME280;11469;49.024;8.246;2022-10-23T13:27:31;99891.13;;;19.72;72.86
22605;BME280;11469;49.024;8.246;2022-10-23T13:29:57;99885.00;;;19.74;72.50
22605;BME280;11469;49.024;8.246;2022-10-23T13:32:25;99881.22;;;19.80;71.86
22605;BME280;11469;49.024;8.246;2022-10-23T13:34:52;99878.38;;;19.80;72.52
22605;BME280;11469;49.024;8.246;2022-10-23T13:37:25;99876.34;;;19.81;73.36
22605;BME280;11469;49.024;8.246;2022-10-23T13:40:02;99874.13;;;19.88;72.62
22605;BME280;11469;49.024;8.246;2022-10-23T13:42:29;99870.41;;;19.92;72.56
22605;BME280;11469;49.024;8.246;2022-10-23T13:44:55;99871.19;;;19.92;72.84
22605;BME280;11469;49.024;8.246;2022-10-23T13:47:20;99866.75;;;19.91;73.19
22605;BME280;11469;49.024;8.246;2022-10-23T13:49:45;99865.94;;;19.91;73.93
22605;BME280;11469;49.024;8.246;2022-10-23T13:52:13;99862.75;;;19.88;74.10
22605;BME280;11469;49.024;8.246;2022-10-23T13:54:39;99862.03;;;19.84;74.79
22605;BME280;11469;49.024;8.246;2022-10-23T13:57:05;99847.47;;;19.82;75.00
22605;BME280;11469;49.024;8.246;2022-10-23T13:59:34;99837.88;;;19.93;72.02
22605;BME280;11469;49.024;8.246;2022-10-23T14:01:59;99837.88;;;19.93;72.24
22605;BME280;11469;49.024;8.246;2022-10-23T14:04:24;99847.03;;;19.84;72.38
22605;BME280;11469;49.024;8.246;2022-10-23T14:06:50;99840.69;;;19.76;73.52
22605;BME280;11469;49.024;8.246;2022-10-23T14:09:18;99839.97;;;19.72;74.66
22605;BME280;11469;49.024;8.246;2022-10-23T14:11:44;99848.19;;;19.67;75.16
22605;BME280;11469;49.024;8.246;2022-10-23T14:14:09;99843.81;;;19.62;76.10
22605;BME280;11469;49.024;8.246;2022-10-23T14:16:35;99844.69;;;19.59;76.47
22605;BME280;11469;49.024;8.246;2022-10-23T14:19:00;99847.16;;;19.57;76.21
22605;BME280;11469;49.024;8.246;2022-10-23T14:21:26;99853.56;;;19.61;75.46
22605;BME280;11469;49.024;8.246;2022-10-23T14:23:52;99843.38;;;19.64;75.61
22605;BME280;11469;49.024;8.246;2022-10-23T14:26:21;99842.44;;;19.70;76.03
22605;BME280;11469;49.024;8.246;2022-10-23T14:28:47;99844.84;;;19.72;77.30
22605;BME280;11469;49.024;8.246;2022-10-23T14:31:16;99833.03;;;19.73;78.56
22605;BME280;11469;49.024;8.246;2022-10-23T14:33:43;99839.16;;;19.72;78.11
22605;BME280;11469;49.024;8.246;2022-10-23T14:36:09;99842.88;;;19.69;78.88
22605;BME280;11469;49.024;8.246;2022-10-23T14:38:35;99847.38;;;19.66;79.56
22605;BME280;11469;49.024;8.246;2022-10-23T14:41:01;99834.41;;;19.65;80.63
22605;BME280;11469;49.024;8.246;2022-10-23T14:43:26;99837.75;;;19.60;81.82
22605;BME280;11469;49.024;8.246;2022-10-23T14:45:52;99837.47;;;19.54;83.20